TimeEDT,TemperatureF,Dew PointF,Humidity,Sea Level PressureIn,VisibilityMPH,Wind Direction,Wind SpeedMPH,Gust SpeedMPH,PrecipitationIn,Events,Conditions,WindDirDegrees,DateUTC
12:53 AM,70.0,66.0,87,29.97,10.0,SSE,4.6,-,N/A,,Clear,160,2013-05-21 04:53:00
1:53 AM,68.0,66.0,93,29.96,10.0,South,3.5,-,N/A,,Clear,190,2013-05-21 05:53:00
2:53 AM,68.0,64.0,87,29.95,10.0,Calm,Calm,-,N/A,,Clear,0,2013-05-21 06:53:00
3:53 AM,66.0,64.0,93,29.98,7.0,Calm,Calm,-,N/A,,Clear,0,2013-05-21 07:53:00
4:53 AM,64.0,63.0,96,29.98,4.0,South,3.5,-,N/A,,Clear,170,2013-05-21 08:53:00
5:53 AM,66.0,63.0,90,29.98,9.0,Calm,Calm,-,N/A,,Clear,0,2013-05-21 09:53:00
6:53 AM,64.9,63.0,93,29.99,7.0,Calm,Calm,-,N/A,,Partly Cloudy,0,2013-05-21 10:53:00
7:53 AM,70.0,63.0,78,29.99,10.0,Calm,Calm,-,N/A,,Scattered Clouds,0,2013-05-21 11:53:00
8:53 AM,73.0,64.0,73,29.99,10.0,SW,6.9,-,N/A,,Clear,230,2013-05-21 12:53:00
9:53 AM,75.0,64.9,71,30.00,10.0,Variable,6.9,-,N/A,,Mostly Cloudy,0,2013-05-21 13:53:00
10:53 AM,77.0,66.0,69,29.99,10.0,Variable,4.6,-,N/A,,Clear,0,2013-05-21 14:53:00
11:53 AM,79.0,66.9,66,29.96,10.0,South,8.1,-,N/A,,Partly Cloudy,190,2013-05-21 15:53:00
12:53 PM,81.0,64.9,58,29.96,10.0,WSW,4.6,-,N/A,,Scattered Clouds,240,2013-05-21 16:53:00
1:53 PM,81.0,66.0,60,29.94,10.0,WSW,12.7,-,N/A,,Scattered Clouds,240,2013-05-21 17:53:00
2:53 PM,82.0,64.9,56,29.93,10.0,SW,11.5,-,N/A,,Mostly Cloudy,230,2013-05-21 18:53:00
3:53 PM,82.9,66.0,56,29.90,10.0,SW,11.5,-,N/A,,Scattered Clouds,220,2013-05-21 19:53:00
4:53 PM,82.9,64.0,53,29.88,10.0,SW,9.2,-,N/A,,Partly Cloudy,220,2013-05-21 20:53:00
5:53 PM,82.9,64.9,54,29.87,10.0,South,9.2,-,N/A,,Clear,190,2013-05-21 21:53:00
6:53 PM,82.0,63.0,52,29.86,10.0,SSW,5.8,-,N/A,,Clear,210,2013-05-21 22:53:00
7:53 PM,81.0,63.0,54,29.87,10.0,SSW,4.6,-,N/A,,Clear,200,2013-05-21 23:53:00
8:53 PM,78.1,64.0,62,29.87,10.0,South,3.5,-,N/A,,Clear,180,2013-05-22 00:53:00
9:53 PM,75.9,64.0,67,29.88,10.0,South,3.5,-,N/A,,Clear,180,2013-05-22 01:53:00
10:53 PM,73.9,64.9,73,29.90,10.0,South,3.5,-,N/A,,Clear,190,2013-05-22 02:53:00
11:53 PM,70.0,64.9,84,29.89,10.0,Calm,Calm,-,N/A,,Scattered Clouds,0,2013-05-22 03:53:00